sensor_id;sensor_type;location;lat;lon;timestamp;pressure;altitude;pressure_sealevel;temperature;humidity
59759;BME280;61150;62.516;17.862;2022-08-19T00:01:57;101200.48;;;15.82;87.80
59759;BME280;61150;62.516;17.862;2022-08-19T00:04:28;101190.34;;;15.82;87.95
59759;BME280;61150;62.516;17.862;2022-08-19T00:06:57;101177.43;;;16.02;87.63
59759;BME280;61150;62.516;17.862;2022-08-19T00:09:26;101173.62;;;16.19;87.14
59759;BME280;61150;62.516;17.862;2022-08-19T00:11:55;101171.77;;;16.34;86.43
59759;BME280;61150;62.516;17.862;2022-08-19T00:14:26;101169.04;;;16.37;85.95
59759;BME280;61150;62.516;17.862;2022-08-19T00:16:55;101172.96;;;16.36;85.54
59759;BME280;61150;62.516;17.862;2022-08-19T00:19:24;101163.81;;;16.24;85.43
59759;BME280;61150;62.516;17.862;2022-08-19T00:21:53;101170.15;;;16.45;85.38
59759;BME280;61150;62.516;17.862;2022-08-19T00:24:21;101177.01;;;16.55;85.21
59759;BME280;61150;62.516;17.862;2022-08-19T00:26:51;101172.08;;;16.49;85.34
59759;BME280;61150;62.516;17.862;2022-08-19T00:29:23;101172.40;;;16.35;85.64
59759;BME280;61150;62.516;17.862;2022-08-19T00:31:53;101182.08;;;16.42;85.35
59759;BME280;61150;62.516;17.862;2022-08-19T00:34:22;101184.43;;;16.43;85.58
59759;BME280;61150;62.516;17.862;2022-08-19T00:36:50;101188.80;;;16.37;85.52
59759;BME280;61150;62.516;17.862;2022-08-19T00:39:19;101194.36;;;16.26;85.83
59759;BME280;61150;62.516;17.862;2022-08-19T00:41:48;101193.49;;;16.33;86.67
59759;BME280;61150;62.516;17.862;2022-08-19T00:44:19;101192.61;;;16.20;87.21
59759;BME280;61150;62.516;17.862;2022-08-19T00:46:50;101195.88;;;16.10;87.44
59759;BME280;61150;62.516;17.862;2022-08-19T00:49:22;101190.59;;;16.25;87.39
59759;BME280;61150;62.516;17.862;2022-08-19T00:51:59;101196.92;;;16.27;87.22
59759;BME280;61150;62.516;17.862;2022-08-19T00:54:29;101197.59;;;16.16;87.19
59759;BME280;61150;62.516;17.862;2022-08-19T00:57:02;101208.73;;;16.22;87.67
59759;BME280;61150;62.516;17.862;2022-08-19T00:59:35;101200.74;;;16.11;87.49
59759;BME280;61150;62.516;17.862;2022-08-19T01:02:56;101188.83;;;15.71;89.61
59759;BME280;61150;62.516;17.862;2022-08-19T01:05:27;101183.05;;;15.57;89.67
59759;BME280;61150;62.516;17.862;2022-08-19T01:07:57;101179.23;;;15.60;89.74
59759;BME280;61150;62.516;17.862;2022-08-19T01:10:29;101176.24;;;15.64;89.87
59759;BME280;61150;62.516;17.862;2022-08-19T01:12:59;101175.87;;;15.62;89.89
59759;BME280;61150;62.516;17.862;2022-08-19T01:15:35;101178.81;;;15.72;90.07
59759;BME280;61150;62.516;17.862;2022-08-19T01:18:09;101181.69;;;15.70;90.32
59759;BME280;61150;62.516;17.862;2022-08-19T01:20:40;101192.23;;;15.60;90.62
59759;BME280;61150;62.516;17.862;2022-08-19T01:23:09;101199.56;;;15.65;90.51
59759;BME280;61150;62.516;17.862;2022-08-19T01:25:42;101198.88;;;15.68;90.70
59759;BME280;61150;62.516;17.862;2022-08-19T01:28:17;101191.04;;;15.79;90.65
59759;BME280;61150;62.516;17.862;2022-08-19T01:30:46;101186.27;;;15.61;90.64
59759;BME280;61150;62.516;17.862;2022-08-19T01:33:14;101184.40;;;15.75;91.07
59759;BME280;61150;62.516;17.862;2022-08-19T01:35:43;101184.24;;;15.68;91.04
59759;BME280;61150;62.516;17.862;2022-08-19T01:38:22;101185.52;;;15.47;90.93
59759;BME280;61150;62.516;17.862;2022-08-19T01:40:52;101182.87;;;15.67;91.29
59759;BME280;61150;62.516;17.862;2022-08-19T01:43:20;101181.74;;;15.59;91.10
59759;BME280;61150;62.516;17.862;2022-08-19T01:45:49;101179.06;;;15.72;91.17
59759;BME280;61150;62.516;17.862;2022-08-19T01:48:18;101179.97;;;15.55;91.42
59759;BME280;61150;62.516;17.862;2022-08-19T01:50:47;101182.53;;;15.54;91.37
59759;BME280;61150;62.516;17.862;2022-08-19T01:53:15;101182.94;;;15.51;91.81
59759;BME280;61150;62.516;17.862;2022-08-19T01:55:44;101185.22;;;15.56;91.81
59759;BME280;61150;62.516;17.862;2022-08-19T01:58:15;101183.79;;;15.47;91.92
59759;BME280;61150;62.516;17.862;2022-08-19T02:00:47;101184.28;;;15.55;91.83
59759;BME280;61150;62.516;17.862;2022-08-19T02:03:16;101182.75;;;15.68;91.78
59759;BME280;61150;62.516;17.862;2022-08-19T02:05:45;101182.58;;;15.61;91.65
59759;BME280;61150;62.516;17.862;2022-08-19T02:08:13;101181.41;;;15.70;91.74
59759;BME280;61150;62.516;17.862;2022-08-19T02:10:43;101178.06;;;15.72;91.72
59759;BME280;61150;62.516;17.862;2022-08-19T02:13:13;101178.74;;;15.73;91.53
59759;BME280;61150;62.516;17.862;2022-08-19T02:15:41;101182.14;;;15.75;91.65
59759;BME280;61150;62.516;17.862;2022-08-19T02:18:10;101181.18;;;15.61;91.76
59759;BME280;61150;62.516;17.862;2022-08-19T02:20:41;101178.05;;;15.73;91.95
59759;BME280;61150;62.516;17.862;2022-08-19T02:23:11;101175.71;;;15.78;91.56
59759;BME280;61150;62.516;17.862;2022-08-19T02:25:41;101181.97;;;15.94;90.93
59759;BME280;61150;62.516;17.862;2022-08-19T02:28:11;101186.28;;;15.95;90.66
59759;BME280;61150;62.516;17.862;2022-08-19T02:30:41;101192.43;;;15.95;90.72
59759;BME280;61150;62.516;17.862;2022-08-19T02:33:10;101181.05;;;15.94;90.77
59759;BME280;61150;62.516;17.862;2022-08-19T02:35:41;101173.17;;;15.90;90.82
59759;BME280;61150;62.516;17.862;2022-08-19T02:38:11;101172.60;;;15.71;90.85
59759;BME280;61150;62.516;17.862;2022-08-19T02:40:39;101178.80;;;15.81;91.05
59759;BME280;61150;62.516;17.862;2022-08-19T02:43:09;101178.48;;;15.84;91.31
59759;BME280;61150;62.516;17.862;2022-08-19T02:45:38;101183.51;;;15.67;91.47
59759;BME280;61150;62.516;17.862;2022-08-19T02:48:08;101188.04;;;15.79;91.59
59759;BME280;61150;62.516;17.862;2022-08-19T02:50:37;101193.01;;;15.76;91.61
59759;BME280;61150;62.516;17.862;2022-08-19T02:53:06;101196.15;;;15.65;91.91
59759;BME280;61150;62.516;17.862;2022-08-19T02:55:35;101195.19;;;15.61;92.30
59759;BME280;61150;62.516;17.862;2022-08-19T02:58:04;101198.99;;;15.72;92.15
59759;BME280;61150;62.516;17.862;2022-08-19T03:00:33;101199.81;;;15.82;92.25
59759;BME280;61150;62.516;17.862;2022-08-19T03:03:01;101197.06;;;15.71;92.14
59759;BME280;61150;62.516;17.862;2022-08-19T03:05:30;101200.63;;;15.82;92.08
59759;BME280;61150;62.516;17.862;2022-08-19T03:07:59;101200.46;;;15.71;91.77
59759;BME280;61150;62.516;17.862;2022-08-19T03:10:28;101196.59;;;15.83;91.50
59759;BME280;61150;62.516;17.862;2022-08-19T03:12:57;101197.24;;;15.80;91.65
59759;BME280;61150;62.516;17.862;2022-08-19T03:15:26;101196.83;;;15.83;91.58
59759;BME280;61150;62.516;17.862;2022-08-19T03:17:54;101191.84;;;15.83;91.43
59759;BME280;61150;62.516;17.862;2022-08-19T03:20:23;101188.96;;;15.84;91.55
59759;BME280;61150;62.516;17.862;2022-08-19T03:22:52;101186.58;;;15.92;91.69
59759;BME280;61150;62.516;17.862;2022-08-19T03:25:21;101182.29;;;15.62;91.86
59759;BME280;61150;62.516;17.862;2022-08-19T03:27:49;101179.54;;;15.84;91.93
59759;BME280;61150;62.516;17.862;2022-08-19T03:30:18;101174.48;;;15.87;91.73
59759;BME280;61150;62.516;17.862;2022-08-19T03:32:47;101167.92;;;15.80;91.88
59759;BME280;61150;62.516;17.862;2022-08-19T03:35:16;101165.06;;;15.72;92.04
59759;BME280;61150;62.516;17.862;2022-08-19T03:37:44;101164.59;;;15.74;92.04
59759;BME280;61150;62.516;17.862;2022-08-19T03:40:13;101161.03;;;15.78;91.97
59759;BME280;61150;62.516;17.862;2022-08-19T03:42:42;101159.15;;;15.90;91.90
59759;BME280;61150;62.516;17.862;2022-08-19T03:45:11;101164.23;;;15.84;91.71
59759;BME280;61150;62.516;17.862;2022-08-19T03:47:39;101157.82;;;15.96;91.68
59759;BME280;61150;62.516;17.862;2022-08-19T03:50:09;101153.71;;;16.02;91.32
59759;BME280;61150;62.516;17.862;2022-08-19T03:52:37;101152.40;;;16.05;91.00
59759;BME280;61150;62.516;17.862;2022-08-19T03:55:06;101153.43;;;16.22;90.72
59759;BME280;61150;62.516;17.862;2022-08-19T03:57:35;101155.23;;;16.17;90.60
59759;BME280;61150;62.516;17.862;2022-08-19T04:02:53;101166.54;;;16.48;90.02
59759;BME280;61150;62.516;17.862;2022-08-19T04:05:22;101174.45;;;16.68;89.93
59759;BME280;61150;62.516;17.862;2022-08-19T04:07:51;101176.59;;;16.57;89.94
59759;BME280;61150;62.516;17.862;2022-08-19T04:10:20;101170.54;;;16.56;89.76
59759;BME280;61150;62.516;17.862;2022-08-19T04:12:49;101174.39;;;16.57;89.87
59759;BME280;61150;62.516;17.862;2022-08-19T04:15:17;101182.16;;;16.62;89.79
59759;BME280;61150;62.516;17.862;2022-08-19T04:17:47;101182.04;;;16.64;89.64
59759;BME280;61150;62.516;17.862;2022-08-19T04:20:16;101184.66;;;16.81;89.52
59759;BME280;61150;62.516;17.862;2022-08-19T04:22:45;101186.49;;;16.68;89.72
59759;BME280;61150;62.516;17.862;2022-08-19T04:25:14;101181.27;;;16.81;89.55
59759;BME280;61150;62.516;17.862;2022-08-19T04:27:43;101182.16;;;16.71;89.52
59759;BME280;61150;62.516;17.862;2022-08-19T04:30:13;101191.66;;;16.76;89.51
59759;BME280;61150;62.516;17.862;2022-08-19T04:32:42;101192.21;;;16.67;89.51
59759;BME280;61150;62.516;17.862;2022-08-19T04:35:11;101190.94;;;16.73;89.23
59759;BME280;61150;62.516;17.862;2022-08-19T04:37:40;101194.48;;;16.74;89.59
59759;BME280;61150;62.516;17.862;2022-08-19T04:40:10;101200.08;;;16.69;89.66
59759;BME280;61150;62.516;17.862;2022-08-19T04:42:39;101205.72;;;16.75;89.73
59759;BME280;61150;62.516;17.862;2022-08-19T04:45:10;101203.40;;;16.77;89.73
59759;BME280;61150;62.516;17.862;2022-08-19T04:47:40;101206.98;;;16.74;89.79
59759;BME280;61150;62.516;17.862;2022-08-19T04:50:10;101204.76;;;16.80;89.58
59759;BME280;61150;62.516;17.862;2022-08-19T04:52:39;101205.45;;;16.84;89.23
59759;BME280;61150;62.516;17.862;2022-08-19T04:55:08;101197.85;;;16.87;89.17
59759;BME280;61150;62.516;17.862;2022-08-19T04:57:36;101193.80;;;16.92;89.16
59759;BME280;61150;62.516;17.862;2022-08-19T05:00:07;101193.73;;;16.84;89.21
59759;BME280;61150;62.516;17.862;2022-08-19T05:02:37;101201.64;;;16.74;89.31
59759;BME280;61150;62.516;17.862;2022-08-19T05:05:07;101190.67;;;16.79;89.40
59759;BME280;61150;62.516;17.862;2022-08-19T05:07:35;101191.57;;;16.93;89.36
59759;BME280;61150;62.516;17.862;2022-08-19T05:10:05;101192.97;;;16.83;89.18
59759;BME280;61150;62.516;17.862;2022-08-19T05:12:33;101180.32;;;16.94;89.10
59759;BME280;61150;62.516;17.862;2022-08-19T05:15:05;101182.04;;;16.98;89.19
59759;BME280;61150;62.516;17.862;2022-08-19T05:17:34;101185.63;;;16.85;89.17
59759;BME280;61150;62.516;17.862;2022-08-19T05:20:03;101184.31;;;16.98;89.13
59759;BME280;61150;62.516;17.862;2022-08-19T05:22:32;101176.06;;;16.96;89.10
59759;BME280;61150;62.516;17.862;2022-08-19T05:25:06;101168.88;;;16.88;89.02
59759;BME280;61150;62.516;17.862;2022-08-19T05:27:35;101170.77;;;17.08;89.00
59759;BME280;61150;62.516;17.862;2022-08-19T05:30:05;101166.88;;;16.94;89.08
59759;BME280;61150;62.516;17.862;2022-08-19T05:32:34;101171.96;;;17.11;89.08
59759;BME280;61150;62.516;17.862;2022-08-19T05:35:04;101179.23;;;17.03;89.20
59759;BME280;61150;62.516;17.862;2022-08-19T05:37:32;101169.41;;;17.11;89.04
59759;BME280;61150;62.516;17.862;2022-08-19T05:40:02;101159.20;;;16.95;88.93
59759;BME280;61150;62.516;17.862;2022-08-19T05:42:30;101162.50;;;17.07;88.93
59759;BME280;61150;62.516;17.862;2022-08-19T05:44:59;101165.15;;;17.00;88.97
59759;BME280;61150;62.516;17.862;2022-08-19T05:47:28;101163.38;;;17.06;88.90
59759;BME280;61150;62.516;17.862;2022-08-19T05:49:56;101160.49;;;17.07;88.94
59759;BME280;61150;62.516;17.862;2022-08-19T05:52:24;101149.72;;;16.97;88.87
59759;BME280;61150;62.516;17.862;2022-08-19T05:54:53;101145.21;;;17.19;88.89
59759;BME280;61150;62.516;17.862;2022-08-19T05:57:23;101144.09;;;17.34;88.67
59759;BME280;61150;62.516;17.862;2022-08-19T05:59:51;101149.92;;;17.22;88.67
59759;BME280;61150;62.516;17.862;2022-08-19T06:02:20;101148.17;;;17.14;88.76
59759;BME280;61150;62.516;17.862;2022-08-19T06:04:49;101151.37;;;17.24;88.75
59759;BME280;61150;62.516;17.862;2022-08-19T06:07:17;101146.60;;;17.29;88.71
59759;BME280;61150;62.516;17.862;2022-08-19T06:09:46;101138.65;;;17.27;88.71
59759;BME280;61150;62.516;17.862;2022-08-19T06:12:15;101137.52;;;17.33;88.46
59759;BME280;61150;62.516;17.862;2022-08-19T06:14:43;101136.50;;;17.41;88.51
59759;BME280;61150;62.516;17.862;2022-08-19T06:17:11;101130.40;;;17.49;88.53
59759;BME280;61150;62.516;17.862;2022-08-19T06:19:38;101125.67;;;17.62;88.18
59759;BME280;61150;62.516;17.862;2022-08-19T06:22:07;101119.50;;;17.85;87.70
59759;BME280;61150;62.516;17.862;2022-08-19T06:24:35;101114.79;;;17.96;87.70
59759;BME280;61150;62.516;17.862;2022-08-19T06:27:04;101118.68;;;17.81;87.33
59759;BME280;61150;62.516;17.862;2022-08-19T06:29:34;101114.04;;;17.86;87.06
59759;BME280;61150;62.516;17.862;2022-08-19T06:32:03;101113.42;;;17.85;86.54
59759;BME280;61150;62.516;17.862;2022-08-19T06:34:34;101118.97;;;17.84;86.56
59759;BME280;61150;62.516;17.862;2022-08-19T06:37:03;101112.67;;;17.88;86.55
59759;BME280;61150;62.516;17.862;2022-08-19T06:39:35;101111.32;;;18.03;86.47
59759;BME280;61150;62.516;17.862;2022-08-19T06:42:05;101112.88;;;18.05;86.52
59759;BME280;61150;62.516;17.862;2022-08-19T06:44:36;101118.28;;;17.80;86.23
59759;BME280;61150;62.516;17.862;2022-08-19T06:47:06;101113.36;;;17.81;86.24
59759;BME280;61150;62.516;17.862;2022-08-19T06:49:35;101117.23;;;17.86;86.37
59759;BME280;61150;62.516;17.862;2022-08-19T06:52:07;101119.34;;;17.76;86.51
59759;BME280;61150;62.516;17.862;2022-08-19T06:54:36;101107.02;;;17.93;86.65
59759;BME280;61150;62.516;17.862;2022-08-19T06:57:06;101108.79;;;17.90;86.64
59759;BME280;61150;62.516;17.862;2022-08-19T06:59:35;101120.19;;;17.67;86.07
59759;BME280;61150;62.516;17.862;2022-08-19T07:02:49;101120.73;;;17.65;87.12
59759;BME280;61150;62.516;17.862;2022-08-19T07:05:18;101123.57;;;17.68;87.50
59759;BME280;61150;62.516;17.862;2022-08-19T07:07:47;101124.72;;;17.68;87.42
59759;BME280;61150;62.516;17.862;2022-08-19T07:10:16;101125.93;;;17.72;87.28
59759;BME280;61150;62.516;17.862;2022-08-19T07:12:45;101123.40;;;17.73;87.00
59759;BME280;61150;62.516;17.862;2022-08-19T07:15:13;101125.97;;;17.79;87.01
59759;BME280;61150;62.516;17.862;2022-08-19T07:17:43;101125.71;;;17.84;86.29
59759;BME280;61150;62.516;17.862;2022-08-19T07:20:12;101126.10;;;17.93;85.94
59759;BME280;61150;62.516;17.862;2022-08-19T07:22:40;101126.83;;;17.94;85.84
59759;BME280;61150;62.516;17.862;2022-08-19T07:25:10;101132.46;;;17.76;85.51
59759;BME280;61150;62.516;17.862;2022-08-19T07:27:39;101134.50;;;17.75;85.55
59759;BME280;61150;62.516;17.862;2022-08-19T07:30:08;101131.17;;;17.72;85.89
59759;BME280;61150;62.516;17.862;2022-08-19T07:32:37;101132.55;;;17.84;85.92
59759;BME280;61150;62.516;17.862;2022-08-19T07:35:07;101122.42;;;17.94;86.00
59759;BME280;61150;62.516;17.862;2022-08-19T07:37:35;101125.22;;;18.18;85.47
59759;BME280;61150;62.516;17.862;2022-08-19T07:40:06;101124.60;;;18.48;84.57
59759;BME280;61150;62.516;17.862;2022-08-19T07:42:36;101127.50;;;18.64;84.31
59759;BME280;61150;62.516;17.862;2022-08-19T07:45:07;101131.06;;;18.53;84.39
59759;BME280;61150;62.516;17.862;2022-08-19T07:47:37;101137.36;;;18.49;83.90
59759;BME280;61150;62.516;17.862;2022-08-19T07:50:08;101141.41;;;18.68;83.28
59759;BME280;61150;62.516;17.862;2022-08-19T07:52:38;101137.50;;;18.61;82.93
59759;BME280;61150;62.516;17.862;2022-08-19T07:55:08;101140.11;;;18.58;83.02
59759;BME280;61150;62.516;17.862;2022-08-19T07:57:37;101139.24;;;18.49;83.32
59759;BME280;61150;62.516;17.862;2022-08-19T08:00:07;101137.20;;;18.44;83.18
59759;BME280;61150;62.516;17.862;2022-08-19T08:02:36;101147.87;;;18.34;83.14
59759;BME280;61150;62.516;17.862;2022-08-19T08:05:06;101146.74;;;18.40;83.41
59759;BME280;61150;62.516;17.862;2022-08-19T08:07:35;101151.38;;;18.29;83.23
59759;BME280;61150;62.516;17.862;2022-08-19T08:10:05;101144.20;;;18.28;83.26
59759;BME280;61150;62.516;17.862;2022-08-19T08:12:37;101151.35;;;18.19;83.78
59759;BME280;61150;62.516;17.862;2022-08-19T08:15:09;101164.22;;;18.11;83.71
59759;BME280;61150;62.516;17.862;2022-08-19T08:17:38;101172.42;;;18.00;84.13
59759;BME280;61150;62.516;17.862;2022-08-19T08:20:08;101168.02;;;17.99;84.52
59759;BME280;61150;62.516;17.862;2022-08-19T08:22:37;101166.45;;;18.11;84.74
59759;BME280;61150;62.516;17.862;2022-08-19T08:25:12;101164.51;;;17.94;84.78
59759;BME280;61150;62.516;17.862;2022-08-19T08:27:44;101169.52;;;17.92;84.55
59759;BME280;61150;62.516;17.862;2022-08-19T08:30:15;101168.74;;;18.04;84.74
59759;BME280;61150;62.516;17.862;2022-08-19T08:32:44;101169.22;;;18.04;84.84
59759;BME280;61150;62.516;17.862;2022-08-19T08:35:16;101170.75;;;18.09;84.77
59759;BME280;61150;62.516;17.862;2022-08-19T08:37:45;101171.60;;;18.12;84.53
59759;BME280;61150;62.516;17.862;2022-08-19T08:40:20;101172.47;;;18.25;84.06
59759;BME280;61150;62.516;17.862;2022-08-19T08:42:55;101171.73;;;18.45;83.23
59759;BME280;61150;62.516;17.862;2022-08-19T08:45:27;101183.52;;;18.49;83.06
59759;BME280;61150;62.516;17.862;2022-08-19T08:48:02;101185.91;;;18.51;83.01
59759;BME280;61150;62.516;17.862;2022-08-19T08:50:34;101188.76;;;18.33;81.96
59759;BME280;61150;62.516;17.862;2022-08-19T08:53:07;101182.70;;;18.41;81.69
59759;BME280;61150;62.516;17.862;2022-08-19T08:55:40;101175.47;;;18.40;81.79
59759;BME280;61150;62.516;17.862;2022-08-19T08:58:12;101173.88;;;18.42;81.37
59759;BME280;61150;62.516;17.862;2022-08-19T09:00:45;101172.07;;;18.42;81.82
59759;BME280;61150;62.516;17.862;2022-08-19T09:03:18;101179.30;;;18.47;82.31
59759;BME280;61150;62.516;17.862;2022-08-19T09:05:56;101169.21;;;18.51;82.58
59759;BME280;61150;62.516;17.862;2022-08-19T09:08:35;101170.84;;;18.67;82.91
59759;BME280;61150;62.516;17.862;2022-08-19T09:11:10;101175.59;;;18.59;82.48
59759;BME280;61150;62.516;17.862;2022-08-19T09:13:54;101176.89;;;18.69;82.16
59759;BME280;61150;62.516;17.862;2022-08-19T09:16:38;101180.39;;;18.79;82.26
59759;BME280;61150;62.516;17.862;2022-08-19T09:19:08;101175.33;;;18.83;81.91
59759;BME280;61150;62.516;17.862;2022-08-19T09:21:38;101177.37;;;18.89;81.33
59759;BME280;61150;62.516;17.862;2022-08-19T09:24:07;101177.58;;;19.01;80.82
59759;BME280;61150;62.516;17.862;2022-08-19T09:26:34;101178.38;;;19.03;80.76
59759;BME280;61150;62.516;17.862;2022-08-19T09:29:04;101180.40;;;19.16;81.14
59759;BME280;61150;62.516;17.862;2022-08-19T09:31:32;101177.85;;;19.06;80.47
59759;BME280;61150;62.516;17.862;2022-08-19T09:34:01;101184.47;;;19.08;80.18
59759;BME280;61150;62.516;17.862;2022-08-19T09:36:31;101193.77;;;19.15;80.12
59759;BME280;61150;62.516;17.862;2022-08-19T09:38:59;101196.69;;;19.10;80.12
59759;BME280;61150;62.516;17.862;2022-08-19T09:41:29;101199.60;;;19.10;79.68
59759;BME280;61150;62.516;17.862;2022-08-19T09:43:58;101195.07;;;18.90;80.18
59759;BME280;61150;62.516;17.862;2022-08-19T09:46:28;101197.73;;;18.88;80.56
59759;BME280;61150;62.516;17.862;2022-08-19T09:48:59;101195.58;;;18.73;80.43
59759;BME280;61150;62.516;17.862;2022-08-19T09:51:28;101186.04;;;18.60;81.21
59759;BME280;61150;62.516;17.862;2022-08-19T09:54:00;101180.61;;;18.67;81.37
59759;BME280;61150;62.516;17.862;2022-08-19T09:56:30;101170.52;;;18.74;81.53
59759;BME280;61150;62.516;17.862;2022-08-19T09:59:02;101167.06;;;18.64;81.49
59759;BME280;61150;62.516;17.862;2022-08-19T10:02:53;101163.48;;;18.06;82.45
59759;BME280;61150;62.516;17.862;2022-08-19T10:05:23;101150.46;;;18.32;83.18
59759;BME280;61150;62.516;17.862;2022-08-19T10:07:53;101140.20;;;18.33;82.88
59759;BME280;61150;62.516;17.862;2022-08-19T10:10:22;101140.23;;;18.49;83.36
59759;BME280;61150;62.516;17.862;2022-08-19T10:12:52;101138.57;;;18.58;82.09
59759;BME280;61150;62.516;17.862;2022-08-19T10:15:20;101135.63;;;18.69;81.88
59759;BME280;61150;62.516;17.862;2022-08-19T10:17:49;101134.74;;;18.66;81.69
59759;BME280;61150;62.516;17.862;2022-08-19T10:20:17;101131.26;;;18.94;81.06
59759;BME280;61150;62.516;17.862;2022-08-19T10:22:45;101131.91;;;18.87;80.84
59759;BME280;61150;62.516;17.862;2022-08-19T10:25:14;101135.50;;;18.75;80.87
59759;BME280;61150;62.516;17.862;2022-08-19T10:27:44;101135.52;;;19.02;81.72
59759;BME280;61150;62.516;17.862;2022-08-19T10:30:13;101133.68;;;18.87;80.99
59759;BME280;61150;62.516;17.862;2022-08-19T10:32:41;101136.28;;;19.13;80.21
59759;BME280;61150;62.516;17.862;2022-08-19T10:35:11;101141.81;;;19.19;79.34
59759;BME280;61150;62.516;17.862;2022-08-19T10:37:41;101139.02;;;19.22;78.35
59759;BME280;61150;62.516;17.862;2022-08-19T10:40:11;101136.20;;;19.06;78.83
59759;BME280;61150;62.516;17.862;2022-08-19T10:42:40;101134.00;;;18.99;78.81
59759;BME280;61150;62.516;17.862;2022-08-19T10:45:09;101132.35;;;18.95;78.37
59759;BME280;61150;62.516;17.862;2022-08-19T10:47:39;101136.02;;;19.01;79.32
59759;BME280;61150;62.516;17.862;2022-08-19T10:50:08;101132.53;;;18.78;79.48
59759;BME280;61150;62.516;17.862;2022-08-19T10:52:36;101131.00;;;18.82;79.76
59759;BME280;61150;62.516;17.862;2022-08-19T10:55:06;101131.64;;;19.10;79.73
59759;BME280;61150;62.516;17.862;2022-08-19T10:57:35;101132.77;;;19.07;79.59
59759;BME280;61150;62.516;17.862;2022-08-19T11:00:05;101131.27;;;18.86;79.22
59759;BME280;61150;62.516;17.862;2022-08-19T11:02:35;101128.16;;;18.90;79.19
59759;BME280;61150;62.516;17.862;2022-08-19T11:05:04;101130.76;;;19.08;79.09
59759;BME280;61150;62.516;17.862;2022-08-19T11:07:33;101125.99;;;19.11;78.58
59759;BME280;61150;62.516;17.862;2022-08-19T11:10:03;101126.17;;;19.10;79.06
59759;BME280;61150;62.516;17.862;2022-08-19T11:12:32;101125.60;;;19.10;79.29
59759;BME280;61150;62.516;17.862;2022-08-19T11:15:01;101121.17;;;19.00;79.77
59759;BME280;61150;62.516;17.862;2022-08-19T11:17:31;101122.00;;;19.08;79.90
59759;BME280;61150;62.516;17.862;2022-08-19T11:20:00;101120.74;;;19.06;79.68
59759;BME280;61150;62.516;17.862;2022-08-19T11:22:28;101121.68;;;18.99;79.62
59759;BME280;61150;62.516;17.862;2022-08-19T11:24:57;101117.58;;;18.66;80.17
59759;BME280;61150;62.516;17.862;2022-08-19T11:27:26;101118.87;;;18.72;80.79
59759;BME280;61150;62.516;17.862;2022-08-19T11:29:56;101123.25;;;18.72;81.41
59759;BME280;61150;62.516;17.862;2022-08-19T11:32:24;101123.17;;;18.65;81.60
59759;BME280;61150;62.516;17.862;2022-08-19T11:34:53;101119.75;;;18.60;82.07
59759;BME280;61150;62.516;17.862;2022-08-19T11:37:22;101115.87;;;18.51;82.34
59759;BME280;61150;62.516;17.862;2022-08-19T11:39:50;101105.65;;;18.65;82.24
59759;BME280;61150;62.516;17.862;2022-08-19T11:42:19;101104.41;;;18.71;81.85
59759;BME280;61150;62.516;17.862;2022-08-19T11:44:48;101108.44;;;18.85;80.97
59759;BME280;61150;62.516;17.862;2022-08-19T11:47:17;101106.12;;;18.80;80.87
59759;BME280;61150;62.516;17.862;2022-08-19T11:49:46;101105.39;;;18.81;80.89
59759;BME280;61150;62.516;17.862;2022-08-19T11:52:15;101107.46;;;18.93;80.63
59759;BME280;61150;62.516;17.862;2022-08-19T11:54:43;101109.59;;;19.03;80.34
59759;BME280;61150;62.516;17.862;2022-08-19T11:57:12;101109.27;;;18.94;80.43
59759;BME280;61150;62.516;17.862;2022-08-19T11:59:41;101107.59;;;18.82;80.60
59759;BME280;61150;62.516;17.862;2022-08-19T12:02:10;101108.86;;;18.71;80.98
59759;BME280;61150;62.516;17.862;2022-08-19T12:04:39;101111.13;;;18.74;81.51
59759;BME280;61150;62.516;17.862;2022-08-19T12:07:08;101112.69;;;18.74;81.77
59759;BME280;61150;62.516;17.862;2022-08-19T12:09:37;101116.09;;;18.55;82.00
59759;BME280;61150;62.516;17.862;2022-08-19T12:12:07;101110.00;;;18.57;82.35
59759;BME280;61150;62.516;17.862;2022-08-19T12:14:35;101103.50;;;18.56;82.87
59759;BME280;61150;62.516;17.862;2022-08-19T12:17:04;101108.29;;;18.65;82.66
59759;BME280;61150;62.516;17.862;2022-08-19T12:19:33;101105.47;;;18.66;82.73
59759;BME280;61150;62.516;17.862;2022-08-19T12:22:01;101104.73;;;18.80;82.50
59759;BME280;61150;62.516;17.862;2022-08-19T12:24:30;101102.40;;;18.71;82.76
59759;BME280;61150;62.516;17.862;2022-08-19T12:27:00;101102.14;;;18.81;82.64
59759;BME280;61150;62.516;17.862;2022-08-19T12:29:29;101097.88;;;18.92;82.15
59759;BME280;61150;62.516;17.862;2022-08-19T12:31:58;101096.11;;;18.84;81.82
59759;BME280;61150;62.516;17.862;2022-08-19T12:34:29;101102.19;;;18.80;81.46
59759;BME280;61150;62.516;17.862;2022-08-19T12:37:03;101109.03;;;18.72;81.99
59759;BME280;61150;62.516;17.862;2022-08-19T12:39:35;101116.20;;;18.87;82.10
59759;BME280;61150;62.516;17.862;2022-08-19T12:42:04;101116.64;;;18.84;82.36
59759;BME280;61150;62.516;17.862;2022-08-19T12:44:32;101113.32;;;18.72;82.48
59759;BME280;61150;62.516;17.862;2022-08-19T12:47:02;101112.45;;;18.82;82.65
59759;BME280;61150;62.516;17.862;2022-08-19T12:49:30;101113.64;;;18.73;82.72
59759;BME280;61150;62.516;17.862;2022-08-19T12:52:00;101113.31;;;18.86;83.15
59759;BME280;61150;62.516;17.862;2022-08-19T12:54:30;101110.43;;;18.84;83.06
59759;BME280;61150;62.516;17.862;2022-08-19T12:56:58;101103.91;;;19.06;82.79
59759;BME280;61150;62.516;17.862;2022-08-19T12:59:27;101101.55;;;18.95;82.72